createdAt,value
2018-05-11T00:00:00.644Z,0.00
2018-05-11T00:01:00.651Z,0.00
2018-05-11T00:02:00.665Z,0.00
2018-05-11T00:03:00.672Z,0.00
2018-05-11T00:04:00.688Z,0.00
2018-05-11T00:05:00.689Z,0.00
2018-05-11T00:06:00.700Z,0.00
2018-05-11T00:07:00.710Z,0.00
2018-05-11T00:08:00.721Z,0.00
2018-05-11T00:09:00.734Z,0.00
2018-05-11T00:10:00.761Z,0.00
2018-05-11T00:11:00.750Z,0.00
2018-05-11T00:12:00.759Z,0.00
2018-05-11T00:13:00.779Z,0.00
2018-05-11T00:14:00.777Z,0.00
2018-05-11T00:15:00.798Z,0.00
2018-05-11T00:16:00.805Z,0.00
2018-05-11T00:17:00.806Z,0.00
2018-05-11T00:18:00.815Z,0.00
2018-05-11T00:19:00.834Z,0.00
2018-05-11T00:20:00.845Z,0.00
2018-05-11T00:21:00.844Z,0.00
2018-05-11T00:22:00.862Z,0.00
2018-05-11T00:23:00.862Z,0.00
2018-05-11T00:24:00.884Z,0.00
2018-05-11T00:25:00.886Z,0.00
2018-05-11T00:26:00.894Z,0.00
2018-05-11T00:27:00.903Z,0.00
2018-05-11T00:28:00.914Z,0.00
2018-05-11T00:29:00.929Z,0.00
2018-05-11T00:30:00.940Z,0.00
2018-05-11T00:31:00.945Z,0.00
2018-05-11T00:32:00.959Z,0.00
2018-05-11T00:33:00.963Z,0.00
2018-05-11T00:34:00.973Z,0.00
2018-05-11T00:35:00.981Z,0.00
2018-05-11T00:36:00.995Z,0.00
2018-05-11T00:37:01.014Z,0.00
2018-05-11T00:38:01.015Z,0.00
2018-05-11T00:39:01.026Z,0.00
2018-05-11T00:40:01.035Z,0.00
2018-05-11T00:41:01.043Z,0.00
2018-05-11T00:42:01.051Z,0.00
2018-05-11T00:43:01.067Z,0.00
2018-05-11T00:44:01.068Z,0.00
2018-05-11T00:45:01.077Z,0.00
2018-05-11T00:46:01.089Z,0.00
2018-05-11T00:47:01.098Z,0.00
2018-05-11T00:48:01.135Z,0.00
2018-05-11T00:49:01.119Z,0.00
2018-05-11T00:50:01.127Z,0.00
2018-05-11T00:51:01.198Z,0.00
2018-05-11T00:52:01.156Z,0.00
2018-05-11T00:53:01.155Z,0.00
2018-05-11T00:54:01.165Z,0.00
2018-05-11T00:55:01.173Z,0.00
2018-05-11T00:56:01.185Z,0.00
2018-05-11T00:57:01.192Z,0.00
2018-05-11T00:58:01.210Z,0.00
2018-05-11T00:59:01.217Z,0.00
2018-05-11T01:00:01.220Z,0.00
2018-05-11T01:01:01.232Z,0.00
2018-05-11T01:02:01.244Z,0.00
2018-05-11T01:03:01.262Z,0.00
2018-05-11T01:04:01.268Z,0.00
2018-05-11T01:05:01.272Z,0.00
2018-05-11T01:06:01.281Z,0.00
2018-05-11T01:07:01.299Z,0.00
2018-05-11T01:08:01.300Z,0.00
2018-05-11T01:09:01.313Z,0.00
2018-05-11T01:10:01.321Z,0.00
2018-05-11T01:11:01.338Z,0.00
2018-05-11T01:12:01.338Z,0.00
2018-05-11T01:13:01.348Z,0.00
2018-05-11T01:14:01.360Z,0.00
2018-05-11T01:15:01.378Z,0.00
2018-05-11T01:16:01.384Z,0.00
2018-05-11T01:17:01.429Z,0.00
2018-05-11T01:18:01.395Z,0.00
2018-05-11T01:19:01.405Z,0.00
2018-05-11T01:20:01.413Z,0.00
2018-05-11T01:21:01.436Z,0.00
2018-05-11T01:22:01.430Z,0.00
2018-05-11T01:23:01.441Z,0.00
2018-05-11T01:24:01.462Z,0.00
2018-05-11T01:25:01.466Z,0.00
2018-05-11T01:26:01.474Z,0.00
2018-05-11T01:27:01.479Z,0.00
2018-05-11T01:28:01.496Z,0.00
2018-05-11T01:29:01.502Z,0.00
2018-05-11T01:30:01.514Z,0.00
2018-05-11T01:31:01.518Z,0.00
2018-05-11T01:32:01.527Z,0.00
2018-05-11T01:33:01.539Z,0.00
2018-05-11T01:34:01.546Z,0.00
2018-05-11T01:35:01.558Z,0.00
2018-05-11T01:36:01.579Z,0.00
2018-05-11T01:37:01.577Z,0.00
2018-05-11T01:38:01.676Z,0.00
2018-05-11T01:39:01.602Z,0.00
2018-05-11T01:40:01.601Z,0.00
2018-05-11T01:41:01.614Z,0.00
2018-05-11T01:42:01.631Z,0.00
2018-05-11T01:43:01.632Z,0.00
2018-05-11T01:44:01.641Z,0.00
2018-05-11T01:45:01.650Z,0.00
2018-05-11T01:46:01.660Z,0.00
2018-05-11T01:47:01.671Z,0.00
2018-05-11T01:48:01.689Z,0.00
2018-05-11T01:49:01.686Z,0.00
2018-05-11T01:50:01.700Z,0.00
2018-05-11T01:51:01.706Z,0.00
2018-05-11T01:52:01.715Z,0.00
2018-05-11T01:53:01.730Z,0.00
2018-05-11T01:54:01.743Z,0.00
2018-05-11T01:55:01.746Z,0.00
2018-05-11T01:56:01.769Z,0.00
2018-05-11T01:57:01.761Z,0.00
2018-05-11T01:58:01.778Z,0.00
2018-05-11T01:59:01.783Z,0.00
2018-05-11T02:00:01.797Z,0.00
2018-05-11T02:01:01.801Z,0.00
2018-05-11T02:02:01.811Z,0.00
2018-05-11T02:03:01.822Z,0.00
2018-05-11T02:04:01.833Z,0.00
2018-05-11T02:05:01.838Z,0.00
2018-05-11T02:06:01.864Z,0.00
2018-05-11T02:07:01.861Z,0.00
2018-05-11T02:08:01.875Z,0.00
2018-05-11T02:09:01.875Z,0.00
2018-05-11T02:10:01.887Z,0.00
2018-05-11T02:11:01.900Z,0.00
2018-05-11T02:12:01.909Z,0.00
2018-05-11T02:13:01.919Z,0.00
2018-05-11T02:14:01.927Z,0.00
2018-05-11T02:15:01.934Z,0.00
2018-05-11T02:16:01.946Z,0.00
2018-05-11T02:17:01.954Z,0.00
2018-05-11T02:18:01.965Z,0.00
2018-05-11T02:19:01.975Z,0.00
2018-05-11T02:20:01.989Z,0.00
2018-05-11T02:21:01.991Z,0.00
2018-05-11T02:22:01.997Z,0.00
2018-05-11T02:23:02.013Z,0.00
2018-05-11T02:24:02.024Z,0.00
2018-05-11T02:25:02.028Z,0.00
2018-05-11T02:26:02.066Z,0.00
2018-05-11T02:27:02.045Z,0.00
2018-05-11T02:28:02.060Z,0.00
2018-05-11T02:29:02.073Z,0.00
2018-05-11T02:30:02.083Z,0.00
2018-05-11T02:31:02.095Z,0.00
2018-05-11T02:32:02.091Z,0.00
2018-05-11T02:33:02.100Z,0.00
2018-05-11T02:34:02.115Z,0.00
2018-05-11T02:35:02.124Z,0.00
2018-05-11T02:36:02.131Z,0.00
2018-05-11T02:37:02.141Z,0.00
2018-05-11T02:38:02.149Z,0.00
2018-05-11T02:39:02.161Z,0.00
2018-05-11T02:40:02.171Z,0.00
2018-05-11T02:41:02.182Z,0.00
2018-05-11T02:42:02.185Z,0.00
2018-05-11T02:43:02.198Z,0.00
2018-05-11T02:44:02.210Z,0.00
2018-05-11T02:45:02.218Z,0.00
2018-05-11T02:46:02.229Z,0.00
2018-05-11T02:47:02.234Z,0.00
2018-05-11T02:48:02.246Z,0.00
2018-05-11T02:49:02.252Z,0.00
2018-05-11T02:50:02.261Z,0.00
2018-05-11T02:51:02.289Z,0.00
2018-05-11T02:52:02.285Z,0.00
2018-05-11T02:53:02.299Z,0.00
2018-05-11T02:54:02.302Z,0.00
2018-05-11T02:55:02.312Z,0.00
2018-05-11T02:56:02.318Z,0.00
2018-05-11T02:57:02.342Z,0.00
2018-05-11T02:58:02.336Z,0.00
2018-05-11T02:59:02.357Z,0.00
2018-05-11T03:00:02.355Z,0.00
2018-05-11T03:01:02.368Z,0.00
2018-05-11T03:02:02.376Z,0.00
2018-05-11T03:03:02.384Z,0.00
2018-05-11T03:04:02.406Z,0.00
2018-05-11T03:05:02.414Z,0.00
2018-05-11T03:06:02.426Z,0.00
2018-05-11T03:07:02.424Z,0.00
2018-05-11T03:08:02.437Z,0.00
2018-05-11T03:09:02.436Z,0.00
2018-05-11T03:10:02.455Z,0.00
2018-05-11T03:11:02.458Z,0.00
2018-05-11T03:12:02.466Z,0.00
2018-05-11T03:13:02.476Z,0.00
2018-05-11T03:14:02.496Z,0.00
2018-05-11T03:15:02.491Z,0.00
2018-05-11T03:16:02.507Z,0.00
2018-05-11T03:17:02.515Z,4.00
2018-05-11T03:18:02.524Z,4.00
2018-05-11T03:19:02.530Z,4.00
2018-05-11T03:20:02.539Z,0.00
2018-05-11T03:21:02.559Z,4.00
2018-05-11T03:22:02.556Z,4.00
2018-05-11T03:23:02.565Z,4.00
2018-05-11T03:24:02.575Z,8.00
2018-05-11T03:25:02.583Z,8.00
2018-05-11T03:26:02.595Z,12.00
2018-05-11T03:27:02.602Z,12.00
2018-05-11T03:28:02.615Z,16.00
2018-05-11T03:29:02.622Z,12.00
2018-05-11T03:30:02.641Z,20.00
2018-05-11T03:31:02.638Z,20.00
2018-05-11T03:32:02.646Z,24.00
2018-05-11T03:33:02.654Z,28.00
2018-05-11T03:34:02.672Z,32.00
2018-05-11T03:35:02.682Z,36.00
2018-05-11T03:36:02.684Z,40.00
2018-05-11T03:37:02.697Z,48.00
2018-05-11T03:38:02.699Z,56.00
2018-05-11T03:39:02.715Z,64.00
2018-05-11T03:40:02.719Z,72.00
2018-05-11T03:41:02.724Z,80.00
2018-05-11T03:42:02.735Z,92.00
2018-05-11T03:43:02.746Z,96.00
2018-05-11T03:44:02.758Z,108.00
2018-05-11T03:45:02.765Z,120.00
2018-05-11T03:46:02.780Z,136.00
2018-05-11T03:47:02.790Z,148.00
2018-05-11T03:48:02.795Z,164.00
2018-05-11T03:49:02.803Z,172.00
2018-05-11T03:50:02.809Z,188.00
2018-05-11T03:51:02.826Z,200.00
2018-05-11T03:52:02.834Z,216.00
2018-05-11T03:53:02.875Z,228.00
2018-05-11T03:54:02.846Z,244.00
2018-05-11T03:55:02.854Z,256.00
2018-05-11T03:56:02.872Z,276.00
2018-05-11T03:57:02.874Z,296.00
2018-05-11T03:58:02.880Z,312.00
2018-05-11T03:59:02.907Z,328.00
2018-05-11T04:00:02.919Z,344.00
2018-05-11T04:01:03.297Z,368.00
2018-05-11T04:02:02.916Z,388.00
2018-05-11T04:03:02.924Z,408.00
2018-05-11T04:04:02.935Z,432.00
2018-05-11T04:05:02.946Z,452.00
2018-05-11T04:06:02.954Z,468.00
2018-05-11T04:07:02.964Z,484.00
2018-05-11T04:08:02.969Z,504.00
2018-05-11T04:09:02.986Z,524.00
2018-05-11T04:10:02.987Z,548.00
2018-05-11T04:11:03.004Z,560.00
2018-05-11T04:12:03.008Z,580.00
2018-05-11T04:13:03.018Z,604.00
2018-05-11T04:14:03.028Z,616.00
2018-05-11T04:15:03.039Z,628.00
2018-05-11T04:16:03.049Z,648.00
2018-05-11T04:17:03.053Z,660.00
2018-05-11T04:18:03.073Z,680.00
2018-05-11T04:19:03.069Z,712.00
2018-05-11T04:20:03.079Z,748.00
2018-05-11T04:21:03.124Z,780.00
2018-05-11T04:22:03.120Z,808.00
2018-05-11T04:23:03.110Z,840.00
2018-05-11T04:24:03.119Z,872.00
2018-05-11T04:25:03.126Z,904.00
2018-05-11T04:26:03.137Z,932.00
2018-05-11T04:27:03.141Z,960.00
2018-05-11T04:28:03.148Z,984.00
2018-05-11T04:29:03.164Z,1012.00
2018-05-11T04:30:03.166Z,1040.00
2018-05-11T04:31:03.180Z,1068.00
2018-05-11T04:32:03.192Z,1088.00
2018-05-11T04:33:03.193Z,1108.00
2018-05-11T04:34:03.201Z,1136.00
2018-05-11T04:35:03.212Z,1156.00
2018-05-11T04:36:03.223Z,1172.00
2018-05-11T04:37:03.239Z,1196.00
2018-05-11T04:38:03.255Z,668.00
2018-05-11T04:39:03.247Z,1244.00
2018-05-11T04:40:03.262Z,1284.00
2018-05-11T04:41:03.265Z,1316.00
2018-05-11T04:42:03.277Z,1336.00
2018-05-11T04:43:03.287Z,1352.00
2018-05-11T04:44:03.297Z,1368.00
2018-05-11T04:45:03.303Z,1384.00
2018-05-11T04:46:03.320Z,1404.00
2018-05-11T04:47:03.319Z,1440.00
2018-05-11T04:48:03.328Z,1480.00
2018-05-11T04:49:03.338Z,1500.00
2018-05-11T04:50:03.356Z,1500.00
2018-05-11T04:51:03.355Z,1524.00
2018-05-11T04:52:03.363Z,1520.00
2018-05-11T04:53:03.377Z,1532.00
2018-05-11T04:54:03.385Z,1536.00
2018-05-11T04:55:03.390Z,1524.00
2018-05-11T04:56:03.400Z,1544.00
2018-05-11T04:57:03.433Z,1568.00
2018-05-11T04:58:03.419Z,1588.00
2018-05-11T04:59:03.430Z,1604.00
2018-05-11T05:00:03.437Z,1620.00
2018-05-11T05:01:03.451Z,1636.00
2018-05-11T05:02:03.454Z,1652.00
2018-05-11T05:03:03.474Z,1688.00
2018-05-11T05:04:03.472Z,1688.00
2018-05-11T05:05:03.486Z,1708.00
2018-05-11T05:06:03.501Z,1716.00
2018-05-11T05:07:03.501Z,1728.00
2018-05-11T05:08:03.512Z,1768.00
2018-05-11T05:09:03.516Z,1792.00
2018-05-11T05:10:03.538Z,1788.00
2018-05-11T05:11:03.538Z,1788.00
2018-05-11T05:12:03.542Z,1752.00
2018-05-11T05:13:03.557Z,1736.00
2018-05-11T05:14:10.775Z,1744.00
2018-05-11T05:16:07.599Z,1776.00
2018-05-11T05:17:07.572Z,1788.00
2018-05-11T05:19:11.633Z,1812.00
2018-05-11T05:20:11.594Z,1824.00
2018-05-11T05:22:15.635Z,1828.00
2018-05-11T05:23:15.617Z,1836.00
2018-05-11T05:25:19.670Z,1852.00
2018-05-11T05:26:19.650Z,1864.00
2018-05-11T05:28:23.655Z,1896.00
2018-05-11T05:29:23.662Z,1920.00
2018-05-11T05:31:27.711Z,1964.00
2018-05-11T05:32:27.691Z,1996.00
2018-05-11T05:34:31.703Z,1968.00
2018-05-11T05:35:31.704Z,1992.00
2018-05-11T05:36:31.713Z,2012.00
2018-05-11T05:37:31.720Z,2008.00
2018-05-11T05:38:31.730Z,1996.00
2018-05-11T05:39:31.740Z,2000.00
2018-05-11T05:40:31.751Z,2008.00
2018-05-11T05:41:31.760Z,2016.00
2018-05-11T05:42:31.768Z,2020.00
2018-05-11T05:43:31.780Z,2020.00
2018-05-11T05:44:31.785Z,2020.00
2018-05-11T05:45:31.792Z,2024.00
2018-05-11T05:46:31.801Z,2032.00
2018-05-11T05:47:31.813Z,2040.00
2018-05-11T05:48:31.823Z,2044.00
2018-05-11T05:49:31.828Z,2056.00
2018-05-11T05:50:31.837Z,2068.00
2018-05-11T05:51:31.850Z,2080.00
2018-05-11T05:52:31.857Z,2088.00
2018-05-11T05:53:31.869Z,2092.00
2018-05-11T05:54:31.875Z,2092.00
2018-05-11T05:55:31.885Z,2092.00
2018-05-11T05:56:31.891Z,2100.00
2018-05-11T05:57:31.902Z,2104.00
2018-05-11T05:58:32.023Z,2116.00
2018-05-11T05:59:31.922Z,2124.00
2018-05-11T06:00:31.941Z,2144.00
2018-05-11T06:01:31.951Z,2168.00
2018-05-11T06:02:32.021Z,2208.00
2018-05-11T06:03:31.961Z,2252.00
2018-05-11T06:04:31.969Z,2304.00
2018-05-11T06:05:31.980Z,2340.00
2018-05-11T06:06:31.991Z,2344.00
2018-05-11T06:07:31.995Z,2312.00
2018-05-11T06:08:32.006Z,2284.00
2018-05-11T06:09:32.021Z,2256.00
2018-05-11T06:10:32.023Z,2232.00
2018-05-11T06:11:32.036Z,2228.00
2018-05-11T06:12:32.045Z,2220.00
2018-05-11T06:13:32.050Z,2252.00
2018-05-11T06:14:32.062Z,2268.00
2018-05-11T06:15:32.141Z,2224.00
2018-05-11T06:16:32.079Z,2240.00
2018-05-11T06:17:32.092Z,2308.00
2018-05-11T06:18:32.099Z,2336.00
2018-05-11T06:19:32.112Z,2336.00
2018-05-11T06:20:32.120Z,2336.00
2018-05-11T06:21:32.130Z,2336.00
2018-05-11T06:22:32.139Z,2356.00
2018-05-11T06:23:32.150Z,2368.00
2018-05-11T06:24:32.162Z,2380.00
2018-05-11T06:25:32.166Z,2388.00
2018-05-11T06:26:32.172Z,2400.00
2018-05-11T06:27:32.185Z,2416.00
2018-05-11T06:28:32.240Z,2424.00
2018-05-11T06:29:32.201Z,2456.00
2018-05-11T06:30:32.212Z,2480.00
2018-05-11T06:31:32.231Z,2476.00
2018-05-11T06:32:32.233Z,2444.00
2018-05-11T06:33:32.238Z,2416.00
2018-05-11T06:34:32.276Z,2536.00
2018-05-11T06:35:32.260Z,2552.00
2018-05-11T06:36:32.281Z,2648.00
2018-05-11T06:37:32.291Z,2900.00
2018-05-11T06:38:32.291Z,2700.00
2018-05-11T06:39:32.306Z,3124.00
2018-05-11T06:40:32.528Z,2844.00
2018-05-11T06:41:32.331Z,3068.00
2018-05-11T06:42:32.339Z,3516.00
2018-05-11T06:43:32.376Z,3268.00
2018-05-11T06:44:32.424Z,4004.00
2018-05-11T06:45:32.356Z,3592.00
2018-05-11T06:46:32.367Z,3932.00
2018-05-11T06:47:32.381Z,3964.00
2018-05-11T06:48:32.392Z,4644.00
2018-05-11T06:49:32.395Z,4204.00
2018-05-11T06:50:32.403Z,3892.00
2018-05-11T06:51:32.418Z,3704.00
2018-05-11T06:52:32.437Z,4804.00
2018-05-11T06:53:32.434Z,4600.00
2018-05-11T06:54:32.444Z,4672.00
2018-05-11T06:55:32.453Z,5704.00
2018-05-11T06:56:32.462Z,6024.00
2018-05-11T06:57:32.474Z,7620.00
2018-05-11T06:58:32.485Z,6892.00
2018-05-11T06:59:32.492Z,5516.00
2018-05-11T07:00:32.500Z,6624.00
2018-05-11T07:01:32.531Z,6908.00
2018-05-11T07:02:32.525Z,8960.00
2018-05-11T07:03:32.531Z,8192.00
2018-05-11T07:04:32.540Z,6104.00
2018-05-11T07:05:32.551Z,6148.00
2018-05-11T07:06:32.561Z,7644.00
2018-05-11T07:07:32.625Z,6572.00
2018-05-11T07:08:32.581Z,5520.00
2018-05-11T07:09:32.590Z,6096.00
2018-05-11T07:10:32.599Z,6788.00
2018-05-11T07:11:32.614Z,7872.00
2018-05-11T07:12:32.622Z,7408.00
2018-05-11T07:13:32.633Z,6512.00
2018-05-11T07:14:32.642Z,6228.00
2018-05-11T07:15:32.652Z,7724.00
2018-05-11T07:16:32.659Z,9752.00
2018-05-11T07:17:32.691Z,7448.00
2018-05-11T07:18:32.683Z,6084.00
2018-05-11T07:19:32.768Z,6348.00
2018-05-11T07:20:32.701Z,6432.00
2018-05-11T07:21:32.710Z,7248.00
2018-05-11T07:22:32.725Z,7528.00
2018-05-11T07:23:32.732Z,7924.00
2018-05-11T07:24:32.745Z,7016.00
2018-05-11T07:25:32.761Z,6608.00
2018-05-11T07:26:32.775Z,7676.00
2018-05-11T07:27:32.777Z,7444.00
2018-05-11T07:28:32.784Z,7304.00
2018-05-11T07:29:32.793Z,7572.00
2018-05-11T07:30:32.802Z,6016.00
2018-05-11T07:31:32.842Z,5728.00
2018-05-11T07:32:32.857Z,6784.00
2018-05-11T07:33:32.911Z,7656.00
2018-05-11T07:34:32.899Z,7676.00
2018-05-11T07:35:32.865Z,8344.00
2018-05-11T07:36:32.888Z,8164.00
2018-05-11T07:37:32.877Z,8168.00
2018-05-11T07:38:32.896Z,7712.00
2018-05-11T07:39:32.903Z,9132.00
2018-05-11T07:40:32.924Z,9140.00
2018-05-11T07:41:32.920Z,8024.00
2018-05-11T07:42:32.931Z,7720.00
2018-05-11T07:43:32.942Z,7680.00
2018-05-11T07:44:32.957Z,9052.00
2018-05-11T07:45:32.962Z,9432.00
2018-05-11T07:46:32.973Z,8624.00
2018-05-11T07:47:32.988Z,8624.00
2018-05-11T07:48:32.996Z,8312.00
2018-05-11T07:49:33.010Z,8540.00
2018-05-11T07:50:33.015Z,9528.00
2018-05-11T07:51:33.049Z,10996.00
2018-05-11T07:52:33.040Z,10428.00
2018-05-11T07:53:33.046Z,9016.00
2018-05-11T07:54:33.061Z,5736.00
2018-05-11T07:55:33.067Z,7672.00
2018-05-11T07:56:33.087Z,8224.00
2018-05-11T07:57:33.093Z,7884.00
2018-05-11T07:58:33.107Z,8392.00
2018-05-11T07:59:33.114Z,8932.00
2018-05-11T08:00:33.122Z,8344.00
2018-05-11T08:01:33.153Z,3620.00
2018-05-11T08:02:33.144Z,8680.00
2018-05-11T08:03:33.158Z,10016.00
2018-05-11T08:04:33.174Z,12064.00
2018-05-11T08:05:33.273Z,12324.00
2018-05-11T08:06:33.189Z,10648.00
2018-05-11T08:07:33.203Z,8184.00
2018-05-11T08:08:33.213Z,7340.00
2018-05-11T08:09:33.224Z,9476.00
2018-05-11T08:10:33.233Z,11308.00
2018-05-11T08:11:33.251Z,10532.00
2018-05-11T08:12:33.260Z,9736.00
2018-05-11T08:13:33.270Z,9684.00
2018-05-11T08:14:33.360Z,10780.00
2018-05-11T08:15:33.292Z,11364.00
2018-05-11T08:16:33.301Z,11272.00
2018-05-11T08:17:33.320Z,10228.00
2018-05-11T08:18:33.333Z,10440.00
2018-05-11T08:19:33.335Z,9820.00
2018-05-11T08:20:33.351Z,9708.00
2018-05-11T08:21:33.357Z,10056.00
2018-05-11T08:22:33.370Z,10008.00
2018-05-11T08:23:33.381Z,7992.00
2018-05-11T08:24:33.396Z,6292.00
2018-05-11T08:25:33.402Z,7120.00
2018-05-11T08:26:33.421Z,8756.00
2018-05-11T08:27:33.427Z,9084.00
2018-05-11T08:28:33.439Z,7776.00
2018-05-11T08:29:33.450Z,8084.00
2018-05-11T08:30:33.463Z,10584.00
2018-05-11T08:31:33.471Z,11308.00
2018-05-11T08:32:33.516Z,11216.00
2018-05-11T08:33:33.494Z,11032.00
2018-05-11T08:34:33.507Z,12840.00
2018-05-11T08:35:33.519Z,13028.00
2018-05-11T08:36:33.533Z,11436.00
2018-05-11T08:37:33.545Z,10176.00
2018-05-11T08:38:33.558Z,9872.00
2018-05-11T08:39:33.567Z,10000.00
2018-05-11T08:40:33.581Z,9788.00
2018-05-11T08:41:33.591Z,10516.00
2018-05-11T08:42:33.600Z,10696.00
2018-05-11T08:43:33.616Z,12460.00
2018-05-11T08:44:33.624Z,15424.00
2018-05-11T08:45:33.641Z,13592.00
2018-05-11T08:46:33.646Z,11792.00
2018-05-11T08:47:33.659Z,10896.00
2018-05-11T08:48:33.669Z,9748.00
2018-05-11T08:49:33.685Z,9412.00
2018-05-11T08:50:33.694Z,10064.00
2018-05-11T08:51:33.713Z,10280.00
2018-05-11T08:52:33.726Z,10212.00
2018-05-11T08:53:33.733Z,11172.00
2018-05-11T08:54:33.743Z,10212.00
2018-05-11T08:55:33.757Z,9556.00
2018-05-11T08:56:33.776Z,10944.00
2018-05-11T08:57:33.776Z,12248.00
2018-05-11T08:58:33.791Z,12712.00
2018-05-11T08:59:33.799Z,12476.00
2018-05-11T09:00:33.822Z,12628.00
2018-05-11T09:01:33.825Z,12760.00
2018-05-11T09:02:33.868Z,11996.00
2018-05-11T09:03:33.848Z,12412.00
2018-05-11T09:04:33.863Z,12532.00
2018-05-11T09:05:33.874Z,13640.00
2018-05-11T09:06:33.887Z,14092.00
2018-05-11T09:07:33.904Z,13704.00
2018-05-11T09:08:33.918Z,12468.00
2018-05-11T09:09:33.922Z,11860.00
2018-05-11T09:10:33.935Z,11304.00
2018-05-11T09:11:33.947Z,10832.00
2018-05-11T09:12:33.959Z,11116.00
2018-05-11T09:13:33.972Z,11484.00
2018-05-11T09:14:33.988Z,11528.00
2018-05-11T09:15:33.995Z,11528.00
2018-05-11T09:16:34.005Z,12024.00
2018-05-11T09:17:34.019Z,13328.00
2018-05-11T09:18:34.031Z,13480.00
2018-05-11T09:19:34.041Z,13864.00
2018-05-11T09:20:34.104Z,15416.00
2018-05-11T09:21:34.071Z,15244.00
2018-05-11T09:22:34.079Z,13720.00
2018-05-11T09:23:34.090Z,12844.00
2018-05-11T09:24:34.106Z,12008.00
2018-05-11T09:25:34.116Z,12004.00
2018-05-11T09:26:34.128Z,13080.00
2018-05-11T09:27:34.143Z,12488.00
2018-05-11T09:28:34.150Z,11716.00
2018-05-11T09:29:34.165Z,11460.00
2018-05-11T09:30:34.177Z,11016.00
2018-05-11T09:31:34.190Z,11012.00
2018-05-11T09:32:34.204Z,11068.00
2018-05-11T09:33:34.218Z,13868.00
2018-05-11T09:34:34.227Z,16128.00
2018-05-11T09:35:34.241Z,18208.00
2018-05-11T09:36:34.252Z,17792.00
2018-05-11T09:37:34.262Z,15632.00
2018-05-11T09:38:34.276Z,15544.00
2018-05-11T09:39:34.349Z,15328.00
2018-05-11T09:40:34.299Z,16832.00
2018-05-11T09:41:34.313Z,16480.00
2018-05-11T09:42:34.322Z,16352.00
2018-05-11T09:43:34.341Z,16096.00
2018-05-11T09:44:34.352Z,15680.00
2018-05-11T09:45:34.369Z,16256.00
2018-05-11T09:46:34.377Z,17696.00
2018-05-11T09:47:34.391Z,17312.00
2018-05-11T09:48:34.401Z,17088.00
2018-05-11T09:49:34.502Z,16352.00
2018-05-11T09:50:34.429Z,15496.00
2018-05-11T09:51:34.441Z,16000.00
2018-05-11T09:52:34.452Z,16448.00
2018-05-11T09:53:34.463Z,16704.00
2018-05-11T09:54:34.481Z,16160.00
2018-05-11T09:55:34.490Z,16064.00
2018-05-11T09:56:34.504Z,15968.00
2018-05-11T09:57:34.512Z,17088.00
2018-05-11T09:58:34.529Z,17600.00
2018-05-11T09:59:34.546Z,17408.00
2018-05-11T10:00:34.554Z,16672.00
2018-05-11T10:01:34.567Z,17792.00
2018-05-11T10:02:34.578Z,20640.00
2018-05-11T10:03:34.592Z,19584.00
2018-05-11T10:04:34.606Z,18176.00
2018-05-11T10:05:34.626Z,17440.00
2018-05-11T10:06:34.632Z,17888.00
2018-05-11T10:07:34.645Z,17664.00
2018-05-11T10:08:34.661Z,15124.00
2018-05-11T10:09:34.672Z,16896.00
2018-05-11T10:10:34.685Z,19104.00
2018-05-11T10:11:34.711Z,18912.00
2018-05-11T10:12:34.712Z,19040.00
2018-05-11T10:13:34.722Z,19200.00
2018-05-11T10:14:34.738Z,19328.00
2018-05-11T10:15:34.754Z,17600.00
2018-05-11T10:16:34.764Z,16384.00
2018-05-11T10:17:34.806Z,16448.00
2018-05-11T10:18:34.789Z,17408.00
2018-05-11T10:19:34.804Z,18080.00
2018-05-11T10:20:34.817Z,19200.00
2018-05-11T10:21:34.832Z,19776.00
2018-05-11T10:22:34.851Z,18368.00
2018-05-11T10:23:34.860Z,16160.00
2018-05-11T10:24:34.878Z,15288.00
2018-05-11T10:25:34.887Z,17536.00
2018-05-11T10:26:34.896Z,18624.00
2018-05-11T10:27:34.915Z,18464.00
2018-05-11T10:28:34.942Z,18368.00
2018-05-11T10:29:34.942Z,16064.00
2018-05-11T10:30:34.951Z,14752.00
2018-05-11T10:31:34.963Z,18400.00
2018-05-11T10:32:34.979Z,18944.00
2018-05-11T10:33:34.992Z,16992.00
2018-05-11T10:34:35.065Z,16896.00
2018-05-11T10:35:35.022Z,16320.00
2018-05-11T10:36:35.034Z,16416.00
2018-05-11T10:37:35.046Z,15360.00
2018-05-11T10:38:35.062Z,16064.00
2018-05-11T10:39:35.079Z,17248.00
2018-05-11T10:40:35.092Z,21056.00
2018-05-11T10:41:35.112Z,24640.00
2018-05-11T10:42:35.115Z,23520.00
2018-05-11T10:43:35.312Z,22720.00
2018-05-11T10:44:35.148Z,20416.00
2018-05-11T10:45:35.158Z,19904.00
2018-05-11T10:46:35.178Z,19072.00
2018-05-11T10:47:35.188Z,19072.00
2018-05-11T10:48:35.272Z,21664.00
2018-05-11T10:49:35.211Z,22080.00
2018-05-11T10:50:35.227Z,22560.00
2018-05-11T10:51:35.244Z,19968.00
2018-05-11T10:52:35.259Z,16672.00
2018-05-11T10:53:35.278Z,15296.00
2018-05-11T10:54:35.288Z,19840.00
2018-05-11T10:55:35.298Z,19680.00
2018-05-11T10:56:35.312Z,21376.00
2018-05-11T10:57:35.325Z,19008.00
2018-05-11T10:58:35.341Z,16320.00
2018-05-11T10:59:35.358Z,16928.00
2018-05-11T11:00:35.370Z,19136.00
2018-05-11T11:01:35.380Z,21312.00
2018-05-11T11:02:35.396Z,23296.00
2018-05-11T11:03:35.413Z,22016.00
2018-05-11T11:04:35.422Z,23520.00
2018-05-11T11:05:35.437Z,18944.00
2018-05-11T11:06:35.459Z,14596.00
2018-05-11T11:07:35.466Z,13792.00
2018-05-11T11:08:35.494Z,13832.00
2018-05-11T11:09:35.493Z,15156.00
2018-05-11T11:10:35.512Z,21504.00
2018-05-11T11:11:35.525Z,18496.00
2018-05-11T11:12:35.543Z,15184.00
2018-05-11T11:13:35.923Z,22880.00
2018-05-11T11:14:35.657Z,19136.00
2018-05-11T11:15:35.582Z,15840.00
2018-05-11T11:16:35.595Z,13496.00
2018-05-11T11:17:35.621Z,13232.00
2018-05-11T11:18:35.624Z,13628.00
2018-05-11T11:19:35.638Z,17728.00
2018-05-11T11:20:35.660Z,15496.00
2018-05-11T11:21:35.665Z,15336.00
2018-05-11T11:22:35.682Z,22496.00
2018-05-11T11:23:35.698Z,22432.00
2018-05-11T11:24:35.712Z,24160.00
2018-05-11T11:25:35.721Z,27392.00
2018-05-11T11:26:35.747Z,27744.00
2018-05-11T11:27:35.752Z,24160.00
2018-05-11T11:28:35.767Z,18912.00
2018-05-11T11:29:35.786Z,14868.00
2018-05-11T11:30:35.797Z,13420.00
2018-05-11T11:31:35.816Z,12724.00
2018-05-11T11:32:35.831Z,14992.00
2018-05-11T11:33:35.838Z,20128.00
2018-05-11T11:34:35.928Z,18752.00
2018-05-11T11:35:35.872Z,17920.00
2018-05-11T11:36:35.884Z,17984.00
2018-05-11T11:37:35.901Z,21600.00
2018-05-11T11:38:35.914Z,58144.00
2018-05-11T11:39:35.925Z,127456.00
2018-05-11T11:40:35.943Z,133536.00
2018-05-11T11:41:35.962Z,59424.00
2018-05-11T11:42:35.975Z,39712.00
2018-05-11T11:43:35.993Z,40736.00
2018-05-11T11:44:36.005Z,117344.00
2018-05-11T11:45:36.021Z,71008.00
2018-05-11T11:46:36.035Z,27616.00
2018-05-11T11:47:36.142Z,105728.00
2018-05-11T11:48:36.082Z,120512.00
2018-05-11T11:49:36.096Z,31200.00
2018-05-11T11:50:36.103Z,19648.00
2018-05-11T11:51:36.120Z,15936.00
2018-05-11T11:52:36.142Z,15204.00
2018-05-11T11:53:36.156Z,17184.00
2018-05-11T11:54:36.210Z,16320.00
2018-05-11T11:55:36.191Z,13700.00
2018-05-11T11:56:36.217Z,12696.00
2018-05-11T11:57:36.225Z,13352.00
2018-05-11T11:58:36.243Z,13748.00
2018-05-11T11:59:36.257Z,15212.00
2018-05-11T12:00:36.277Z,70336.00
2018-05-11T12:01:36.372Z,54528.00
2018-05-11T12:02:36.315Z,26496.00
2018-05-11T12:03:36.321Z,122016.00
2018-05-11T12:04:36.344Z,38752.00
2018-05-11T12:05:36.356Z,20736.00
2018-05-11T12:06:36.375Z,16448.00
2018-05-11T12:07:36.391Z,15808.00
2018-05-11T12:08:36.421Z,18752.00
2018-05-11T12:09:36.425Z,79168.00
2018-05-11T12:10:36.451Z,70656.00
2018-05-11T12:11:36.459Z,59872.00
2018-05-11T12:12:36.474Z,85632.00
2018-05-11T12:13:36.492Z,91008.00
2018-05-11T12:14:36.516Z,95232.00
2018-05-11T12:15:36.527Z,116704.00
2018-05-11T12:16:36.546Z,49312.00
2018-05-11T12:17:36.564Z,111136.00
2018-05-11T12:18:36.583Z,110176.00
2018-05-11T12:19:36.602Z,115072.00
2018-05-11T12:20:36.626Z,53152.00
2018-05-11T12:21:36.642Z,108672.00
2018-05-11T12:22:36.664Z,47648.00
2018-05-11T12:23:36.684Z,20448.00
2018-05-11T12:24:36.700Z,16416.00
2018-05-11T12:25:36.720Z,26144.00
2018-05-11T12:26:36.743Z,98752.00